CYPR/YPR METAR and TAF weather

Enter ICAO airport designator
Station Type Date Time Source
CYPR METAR 2019/08/19 12:00 UTC NOAA

CYPR 191200Z AUTO 07006KT 9SM CLR 08/07 A2990 RMK SLP126


Station Type Date Time Source
CYPR Decoded METAR 2019/08/19 12:00 UTC NOAA

Station name not available
Aug 19, 2019 - 08:00 AM EDT / 2019.08.19 1200 UTC
Wind: from the ENE (070 degrees) at 7 MPH (6 KT):0
Visibility: 9 mile(s):0
Sky conditions: clear
Temperature: 46 F (8 C)
Dew Point: 44 F (7 C)
Relative Humidity: 93%
Pressure (altimeter): 29.9 in. Hg (1012 hPa)
ob: CYPR 191200Z AUTO 07006KT 9SM CLR 08/07 A2990 RMK SLP126
cycle: 12

Station Type Date Time Source
CYPR TAF 2019/08/19 07:39 UTC NOAA

TAF CYPR 190638Z 1907/1919 13006KT P6SM FEW050
FM190900 13006KT P6SM FEW030
TEMPO 1909/1919 BKN030 PROB30 1909/1916 1/2SM FG OVC002
RMK FCST BASED ON AUTO OBS. NXT FCST BY 191300Z

Example: see airport list